sensor_id;sensor_type;location;lat;lon;timestamp;pressure;altitude;pressure_sealevel;temperature
69785;BMP280;14177;51.520;6.764;2023-08-12T00:02:13;101531.88;;;21.94
69785;BMP280;14177;51.520;6.764;2023-08-12T00:04:40;101528.50;;;21.92
69785;BMP280;14177;51.520;6.764;2023-08-12T00:07:07;101526.78;;;21.91
69785;BMP280;14177;51.520;6.764;2023-08-12T00:09:34;101530.50;;;21.89
69785;BMP280;14177;51.520;6.764;2023-08-12T00:12:01;101523.41;;;21.89
69785;BMP280;14177;51.520;6.764;2023-08-12T00:14:28;101520.47;;;21.94
69785;BMP280;14177;51.520;6.764;2023-08-12T00:16:55;101523.00;;;21.95
69785;BMP280;14177;51.520;6.764;2023-08-12T00:19:22;101525.09;;;21.90
69785;BMP280;14177;51.520;6.764;2023-08-12T00:21:49;101529.88;;;21.85
69785;BMP280;14177;51.520;6.764;2023-08-12T00:24:19;101527.72;;;21.78
69785;BMP280;14177;51.520;6.764;2023-08-12T00:26:46;101522.00;;;21.71
69785;BMP280;14177;51.520;6.764;2023-08-12T00:29:13;101522.28;;;21.67
69785;BMP280;14177;51.520;6.764;2023-08-12T00:31:40;101515.41;;;21.64
69785;BMP280;14177;51.520;6.764;2023-08-12T00:34:07;101511.81;;;21.65
69785;BMP280;14177;51.520;6.764;2023-08-12T00:36:34;101505.47;;;21.68
69785;BMP280;14177;51.520;6.764;2023-08-12T00:39:01;101500.16;;;21.68
69785;BMP280;14177;51.520;6.764;2023-08-12T00:41:28;101495.84;;;21.67
69785;BMP280;14177;51.520;6.764;2023-08-12T00:43:56;101498.38;;;21.68
69785;BMP280;14177;51.520;6.764;2023-08-12T00:46:23;101492.25;;;21.68
69785;BMP280;14177;51.520;6.764;2023-08-12T00:48:52;101495.94;;;21.65
69785;BMP280;14177;51.520;6.764;2023-08-12T00:51:20;101496.22;;;21.61
69785;BMP280;14177;51.520;6.764;2023-08-12T00:53:47;101495.44;;;21.59
69785;BMP280;14177;51.520;6.764;2023-08-12T00:56:15;101494.63;;;21.58
69785;BMP280;14177;51.520;6.764;2023-08-12T00:58:43;101495.56;;;21.57
69785;BMP280;14177;51.520;6.764;2023-08-12T01:01:11;101494.81;;;21.55
69785;BMP280;14177;51.520;6.764;2023-08-12T01:03:39;101495.22;;;21.49
69785;BMP280;14177;51.520;6.764;2023-08-12T01:06:07;101494.56;;;21.46
69785;BMP280;14177;51.520;6.764;2023-08-12T01:08:35;101498.16;;;21.45
69785;BMP280;14177;51.520;6.764;2023-08-12T01:11:29;101494.75;;;21.43
69785;BMP280;14177;51.520;6.764;2023-08-12T01:14:18;101493.06;;;21.42
69785;BMP280;14177;51.520;6.764;2023-08-12T01:16:51;101483.53;;;21.39
69785;BMP280;14177;51.520;6.764;2023-08-12T01:19:33;101481.00;;;21.38
69785;BMP280;14177;51.520;6.764;2023-08-12T01:22:04;101471.47;;;21.35
69785;BMP280;14177;51.520;6.764;2023-08-12T01:24:42;101472.41;;;21.34
69785;BMP280;14177;51.520;6.764;2023-08-12T01:27:12;101467.22;;;21.33
69785;BMP280;14177;51.520;6.764;2023-08-12T01:29:46;101467.31;;;21.31
69785;BMP280;14177;51.520;6.764;2023-08-12T01:35:14;101457.81;;;21.29
69785;BMP280;14177;51.520;6.764;2023-08-12T01:37:47;101451.66;;;21.28
69785;BMP280;14177;51.520;6.764;2023-08-12T01:40:16;101453.47;;;21.28
69785;BMP280;14177;51.520;6.764;2023-08-12T01:42:45;101452.59;;;21.27
69785;BMP280;14177;51.520;6.764;2023-08-12T01:45:13;101451.09;;;21.23
69785;BMP280;14177;51.520;6.764;2023-08-12T01:47:43;101452.03;;;21.22
69785;BMP280;14177;51.520;6.764;2023-08-12T01:50:11;101451.22;;;21.22
69785;BMP280;14177;51.520;6.764;2023-08-12T01:52:38;101455.75;;;21.20
69785;BMP280;14177;51.520;6.764;2023-08-12T01:55:05;101452.34;;;21.18
69785;BMP280;14177;51.520;6.764;2023-08-12T01:57:33;101452.63;;;21.13
69785;BMP280;14177;51.520;6.764;2023-08-12T02:00:03;101448.31;;;21.12
69785;BMP280;14177;51.520;6.764;2023-08-12T02:02:42;101456.44;;;21.09
69785;BMP280;14177;51.520;6.764;2023-08-12T02:05:14;101451.16;;;21.09
69785;BMP280;14177;51.520;6.764;2023-08-12T02:07:41;101442.47;;;21.07
69785;BMP280;14177;51.520;6.764;2023-08-12T02:10:09;101441.63;;;21.07
69785;BMP280;14177;51.520;6.764;2023-08-12T02:12:36;101435.41;;;21.08
69785;BMP280;14177;51.520;6.764;2023-08-12T02:15:04;101437.00;;;21.10
69785;BMP280;14177;51.520;6.764;2023-08-12T02:17:31;101441.34;;;21.11
69785;BMP280;14177;51.520;6.764;2023-08-12T02:19:58;101431.81;;;21.09
69785;BMP280;14177;51.520;6.764;2023-08-12T02:22:26;101432.88;;;21.06
69785;BMP280;14177;51.520;6.764;2023-08-12T02:24:53;101425.13;;;21.03
69785;BMP280;14177;51.520;6.764;2023-08-12T02:27:20;101422.50;;;21.03
69785;BMP280;14177;51.520;6.764;2023-08-12T02:29:47;101417.22;;;21.03
69785;BMP280;14177;51.520;6.764;2023-08-12T02:32:14;101419.84;;;21.03
69785;BMP280;14177;51.520;6.764;2023-08-12T02:34:41;101420.59;;;21.05
69785;BMP280;14177;51.520;6.764;2023-08-12T02:37:09;101411.72;;;21.06
69785;BMP280;14177;51.520;6.764;2023-08-12T02:39:37;101413.44;;;21.07
69785;BMP280;14177;51.520;6.764;2023-08-12T02:42:05;101414.38;;;21.06
69785;BMP280;14177;51.520;6.764;2023-08-12T02:44:32;101415.31;;;21.05
69785;BMP280;14177;51.520;6.764;2023-08-12T02:46:59;101415.31;;;21.05
69785;BMP280;14177;51.520;6.764;2023-08-12T02:49:26;101413.44;;;21.07
69785;BMP280;14177;51.520;6.764;2023-08-12T02:51:54;101408.91;;;21.09
69785;BMP280;14177;51.520;6.764;2023-08-12T02:54:21;101394.81;;;21.09
69785;BMP280;14177;51.520;6.764;2023-08-12T02:56:50;101394.94;;;21.07
69785;BMP280;14177;51.520;6.764;2023-08-12T02:59:17;101386.16;;;21.07
69785;BMP280;14177;51.520;6.764;2023-08-12T03:01:44;101386.47;;;21.02
69785;BMP280;14177;51.520;6.764;2023-08-12T03:04:11;101391.81;;;21.01
69785;BMP280;14177;51.520;6.764;2023-08-12T03:06:38;101385.78;;;20.99
69785;BMP280;14177;51.520;6.764;2023-08-12T03:09:06;101391.19;;;20.97
69785;BMP280;14177;51.520;6.764;2023-08-12T03:11:34;101385.91;;;20.97
69785;BMP280;14177;51.520;6.764;2023-08-12T03:14:03;101385.03;;;20.97
69785;BMP280;14177;51.520;6.764;2023-08-12T03:16:30;101379.69;;;20.98
69785;BMP280;14177;51.520;6.764;2023-08-12T03:18:58;101379.69;;;20.98
69785;BMP280;14177;51.520;6.764;2023-08-12T03:21:25;101383.81;;;21.02
69785;BMP280;14177;51.520;6.764;2023-08-12T03:23:52;101385.50;;;21.03
69785;BMP280;14177;51.520;6.764;2023-08-12T03:26:19;101377.78;;;21.00
69785;BMP280;14177;51.520;6.764;2023-08-12T03:28:47;101384.00;;;20.99
69785;BMP280;14177;51.520;6.764;2023-08-12T03:31:17;101377.88;;;20.99
69785;BMP280;14177;51.520;6.764;2023-08-12T03:33:44;101368.16;;;20.99
69785;BMP280;14177;51.520;6.764;2023-08-12T03:36:13;101366.16;;;21.03
69785;BMP280;14177;51.520;6.764;2023-08-12T03:38:40;101372.13;;;21.06
69785;BMP280;14177;51.520;6.764;2023-08-12T03:41:13;101373.69;;;21.09
69785;BMP280;14177;51.520;6.764;2023-08-12T03:43:40;101365.47;;;21.13
69785;BMP280;14177;51.520;6.764;2023-08-12T03:46:08;101374.13;;;21.15
69785;BMP280;14177;51.520;6.764;2023-08-12T03:48:36;101374.03;;;21.17
69785;BMP280;14177;51.520;6.764;2023-08-12T03:51:03;101375.75;;;21.18
69785;BMP280;14177;51.520;6.764;2023-08-12T03:53:33;101369.50;;;21.19
69785;BMP280;14177;51.520;6.764;2023-08-12T03:56:00;101371.19;;;21.20
69785;BMP280;14177;51.520;6.764;2023-08-12T03:58:29;101366.13;;;21.17
69785;BMP280;14177;51.520;6.764;2023-08-12T04:00:57;101362.81;;;21.13
69785;BMP280;14177;51.520;6.764;2023-08-12T04:03:24;101360.47;;;21.09
69785;BMP280;14177;51.520;6.764;2023-08-12T04:05:52;101361.53;;;21.06
69785;BMP280;14177;51.520;6.764;2023-08-12T04:08:23;101352.97;;;21.03
69785;BMP280;14177;51.520;6.764;2023-08-12T04:10:51;101354.97;;;20.99
69785;BMP280;14177;51.520;6.764;2023-08-12T04:13:18;101346.19;;;20.99
69785;BMP280;14177;51.520;6.764;2023-08-12T04:15:52;101353.28;;;20.98
69785;BMP280;14177;51.520;6.764;2023-08-12T04:18:22;101346.84;;;21.02
69785;BMP280;14177;51.520;6.764;2023-08-12T04:20:50;101343.13;;;21.05
69785;BMP280;14177;51.520;6.764;2023-08-12T04:23:18;101350.97;;;21.06
69785;BMP280;14177;51.520;6.764;2023-08-12T04:25:49;101340.41;;;21.06
69785;BMP280;14177;51.520;6.764;2023-08-12T04:28:18;101343.06;;;21.06
69785;BMP280;14177;51.520;6.764;2023-08-12T04:30:48;101331.44;;;21.09
69785;BMP280;14177;51.520;6.764;2023-08-12T04:33:18;101336.72;;;21.09
69785;BMP280;14177;51.520;6.764;2023-08-12T04:35:49;101327.75;;;21.11
69785;BMP280;14177;51.520;6.764;2023-08-12T04:38:17;101330.41;;;21.11
69785;BMP280;14177;51.520;6.764;2023-08-12T04:40:46;101319.84;;;21.11
69785;BMP280;14177;51.520;6.764;2023-08-12T04:43:14;101314.56;;;21.11
69785;BMP280;14177;51.520;6.764;2023-08-12T04:45:48;101316.25;;;21.12
69785;BMP280;14177;51.520;6.764;2023-08-12T04:48:18;101318.75;;;21.14
69785;BMP280;14177;51.520;6.764;2023-08-12T04:50:45;101317.69;;;21.16
69785;BMP280;14177;51.520;6.764;2023-08-12T04:53:12;101316.66;;;21.19
69785;BMP280;14177;51.520;6.764;2023-08-12T04:55:40;101308.63;;;21.20
69785;BMP280;14177;51.520;6.764;2023-08-12T04:58:07;101308.44;;;21.23
69785;BMP280;14177;51.520;6.764;2023-08-12T05:00:35;101294.06;;;21.27
69785;BMP280;14177;51.520;6.764;2023-08-12T05:03:03;101291.34;;;21.29
69785;BMP280;14177;51.520;6.764;2023-08-12T05:05:31;101291.75;;;21.35
69785;BMP280;14177;51.520;6.764;2023-08-12T05:07:58;101289.66;;;21.40
69785;BMP280;14177;51.520;6.764;2023-08-12T05:10:26;101286.06;;;21.41
69785;BMP280;14177;51.520;6.764;2023-08-12T05:12:57;101295.81;;;21.41
69785;BMP280;14177;51.520;6.764;2023-08-12T05:15:25;101298.44;;;21.41
69785;BMP280;14177;51.520;6.764;2023-08-12T05:17:53;101293.44;;;21.36
69785;BMP280;14177;51.520;6.764;2023-08-12T05:20:22;101290.47;;;21.28
69785;BMP280;14177;51.520;6.764;2023-08-12T05:22:49;101285.38;;;21.25
69785;BMP280;14177;51.520;6.764;2023-08-12T05:25:16;101292.38;;;21.26
69785;BMP280;14177;51.520;6.764;2023-08-12T05:27:43;101284.66;;;21.23
69785;BMP280;14177;51.520;6.764;2023-08-12T05:30:11;101304.94;;;21.23
69785;BMP280;14177;51.520;6.764;2023-08-12T05:32:38;101292.78;;;21.20
69785;BMP280;14177;51.520;6.764;2023-08-12T05:35:05;101290.13;;;21.20
69785;BMP280;14177;51.520;6.764;2023-08-12T05:37:34;101296.16;;;21.22
69785;BMP280;14177;51.520;6.764;2023-08-12T05:40:01;101290.13;;;21.20
69785;BMP280;14177;51.520;6.764;2023-08-12T05:42:28;101278.63;;;21.21
69785;BMP280;14177;51.520;6.764;2023-08-12T05:44:55;101273.34;;;21.21
69785;BMP280;14177;51.520;6.764;2023-08-12T05:47:22;101266.28;;;21.22
69785;BMP280;14177;51.520;6.764;2023-08-12T05:49:49;101273.13;;;21.24
69785;BMP280;14177;51.520;6.764;2023-08-12T05:52:16;101275.22;;;21.19
69785;BMP280;14177;51.520;6.764;2023-08-12T05:54:43;101271.75;;;21.19
69785;BMP280;14177;51.520;6.764;2023-08-12T05:57:10;101271.97;;;21.16
69785;BMP280;14177;51.520;6.764;2023-08-12T05:59:37;101264.13;;;21.14
69785;BMP280;14177;51.520;6.764;2023-08-12T06:02:04;101266.75;;;21.14
69785;BMP280;14177;51.520;6.764;2023-08-12T06:04:31;101258.13;;;21.12
69785;BMP280;14177;51.520;6.764;2023-08-12T06:06:58;101259.78;;;21.13
69785;BMP280;14177;51.520;6.764;2023-08-12T06:09:25;101256.19;;;21.14
69785;BMP280;14177;51.520;6.764;2023-08-12T06:11:52;101258.84;;;21.14
69785;BMP280;14177;51.520;6.764;2023-08-12T06:14:20;101260.84;;;21.11
69785;BMP280;14177;51.520;6.764;2023-08-12T06:16:47;101270.66;;;21.09
69785;BMP280;14177;51.520;6.764;2023-08-12T06:19:14;101280.50;;;21.07
69785;BMP280;14177;51.520;6.764;2023-08-12T06:21:41;101287.03;;;21.01
69785;BMP280;14177;51.520;6.764;2023-08-12T06:24:09;101289.13;;;20.96
69785;BMP280;14177;51.520;6.764;2023-08-12T06:26:36;101288.59;;;20.91
69785;BMP280;14177;51.520;6.764;2023-08-12T06:29:03;101277.47;;;20.87
69785;BMP280;14177;51.520;6.764;2023-08-12T06:31:32;101274.91;;;20.85
69785;BMP280;14177;51.520;6.764;2023-08-12T06:33:59;101278.63;;;20.83
69785;BMP280;14177;51.520;6.764;2023-08-12T06:36:27;101272.75;;;20.78
69785;BMP280;14177;51.520;6.764;2023-08-12T06:38:54;101260.50;;;20.77
69785;BMP280;14177;51.520;6.764;2023-08-12T06:41:21;101249.13;;;20.76
69785;BMP280;14177;51.520;6.764;2023-08-12T06:43:49;101246.19;;;20.81
69785;BMP280;14177;51.520;6.764;2023-08-12T06:46:16;101248.63;;;20.84
69785;BMP280;14177;51.520;6.764;2023-08-12T06:48:43;101238.81;;;20.86
69785;BMP280;14177;51.520;6.764;2023-08-12T06:51:10;101235.31;;;20.85
69785;BMP280;14177;51.520;6.764;2023-08-12T06:53:41;101230.91;;;20.86
69785;BMP280;14177;51.520;6.764;2023-08-12T06:56:09;101235.44;;;20.84
69785;BMP280;14177;51.520;6.764;2023-08-12T06:58:36;101235.44;;;20.84
69785;BMP280;14177;51.520;6.764;2023-08-12T07:01:03;101227.50;;;20.84
69785;BMP280;14177;51.520;6.764;2023-08-12T07:03:30;101236.25;;;20.84
69785;BMP280;14177;51.520;6.764;2023-08-12T07:05:58;101240.50;;;20.87
69785;BMP280;14177;51.520;6.764;2023-08-12T07:08:25;101241.47;;;20.86
69785;BMP280;14177;51.520;6.764;2023-08-12T07:10:53;101241.53;;;20.84
69785;BMP280;14177;51.520;6.764;2023-08-12T07:13:21;101242.19;;;20.88
69785;BMP280;14177;51.520;6.764;2023-08-12T07:15:48;101246.63;;;20.87
69785;BMP280;14177;51.520;6.764;2023-08-12T07:18:15;101242.28;;;20.86
69785;BMP280;14177;51.520;6.764;2023-08-12T07:20:42;101237.13;;;20.85
69785;BMP280;14177;51.520;6.764;2023-08-12T07:23:10;101240.72;;;20.84
69785;BMP280;14177;51.520;6.764;2023-08-12T07:25:37;101233.75;;;20.83
69785;BMP280;14177;51.520;6.764;2023-08-12T07:28:05;101241.75;;;20.81
69785;BMP280;14177;51.520;6.764;2023-08-12T07:30:35;101245.25;;;20.82
69785;BMP280;14177;51.520;6.764;2023-08-12T07:33:04;101242.41;;;20.85
69785;BMP280;14177;51.520;6.764;2023-08-12T07:35:31;101238.81;;;20.86
69785;BMP280;14177;51.520;6.764;2023-08-12T07:37:58;101238.63;;;20.88
69785;BMP280;14177;51.520;6.764;2023-08-12T07:40:26;101237.66;;;20.89
69785;BMP280;14177;51.520;6.764;2023-08-12T07:42:53;101237.66;;;20.89
69785;BMP280;14177;51.520;6.764;2023-08-12T07:45:21;101247.28;;;20.90
69785;BMP280;14177;51.520;6.764;2023-08-12T07:47:50;101236.59;;;20.92
69785;BMP280;14177;51.520;6.764;2023-08-12T07:50:18;101234.09;;;20.90
69785;BMP280;14177;51.520;6.764;2023-08-12T07:52:45;101241.06;;;20.91
69785;BMP280;14177;51.520;6.764;2023-08-12T07:55:12;101226.16;;;20.90
69785;BMP280;14177;51.520;6.764;2023-08-12T07:57:39;101220.69;;;20.93
69785;BMP280;14177;51.520;6.764;2023-08-12T08:00:07;101232.94;;;20.94
69785;BMP280;14177;51.520;6.764;2023-08-12T08:02:35;101233.13;;;20.91
69785;BMP280;14177;51.520;6.764;2023-08-12T08:05:03;101232.94;;;20.94
69785;BMP280;14177;51.520;6.764;2023-08-12T08:07:30;101229.34;;;20.95
69785;BMP280;14177;51.520;6.764;2023-08-12T08:09:59;101223.66;;;21.01
69785;BMP280;14177;51.520;6.764;2023-08-12T08:12:26;101218.91;;;21.06
69785;BMP280;14177;51.520;6.764;2023-08-12T08:14:53;101211.41;;;21.13
69785;BMP280;14177;51.520;6.764;2023-08-12T08:17:20;101208.44;;;21.17
69785;BMP280;14177;51.520;6.764;2023-08-12T08:19:47;101221.44;;;21.20
69785;BMP280;14177;51.520;6.764;2023-08-12T08:22:14;101219.88;;;21.18
69785;BMP280;14177;51.520;6.764;2023-08-12T08:24:42;101215.41;;;21.18
69785;BMP280;14177;51.520;6.764;2023-08-12T08:27:09;101217.31;;;21.16
69785;BMP280;14177;51.520;6.764;2023-08-12T08:30:02;101217.53;;;21.13
69785;BMP280;14177;51.520;6.764;2023-08-12T08:34:05;101207.41;;;21.07
69785;BMP280;14177;51.520;6.764;2023-08-12T08:36:32;101217.00;;;21.08
69785;BMP280;14177;51.520;6.764;2023-08-12T08:38:59;101227.25;;;21.13
69785;BMP280;14177;51.520;6.764;2023-08-12T08:41:30;101219.00;;;21.17
69785;BMP280;14177;51.520;6.764;2023-08-12T08:44:02;101217.84;;;21.21
69785;BMP280;14177;51.520;6.764;2023-08-12T08:46:31;101217.44;;;21.27
69785;BMP280;14177;51.520;6.764;2023-08-12T08:49:01;101212.69;;;21.32
69785;BMP280;14177;51.520;6.764;2023-08-12T08:51:32;101212.94;;;21.42
69785;BMP280;14177;51.520;6.764;2023-08-12T08:54:02;101214.28;;;21.47
69785;BMP280;14177;51.520;6.764;2023-08-12T08:56:32;101211.00;;;21.56
69785;BMP280;14177;51.520;6.764;2023-08-12T08:59:08;101213.53;;;21.58
69785;BMP280;14177;51.520;6.764;2023-08-12T09:01:36;101211.84;;;21.57
69785;BMP280;14177;51.520;6.764;2023-08-12T09:04:05;101211.09;;;21.55
69785;BMP280;14177;51.520;6.764;2023-08-12T09:06:33;101220.94;;;21.53
69785;BMP280;14177;51.520;6.764;2023-08-12T09:09:05;101229.81;;;21.52
69785;BMP280;14177;51.520;6.764;2023-08-12T09:11:38;101224.13;;;21.45
69785;BMP280;14177;51.520;6.764;2023-08-12T09:14:06;101218.84;;;21.45
69785;BMP280;14177;51.520;6.764;2023-08-12T09:16:33;101226.75;;;21.45
69785;BMP280;14177;51.520;6.764;2023-08-12T09:19:01;101216.19;;;21.45
69785;BMP280;14177;51.520;6.764;2023-08-12T09:21:28;101227.63;;;21.46
69785;BMP280;14177;51.520;6.764;2023-08-12T09:23:55;101230.16;;;21.47
69785;BMP280;14177;51.520;6.764;2023-08-12T09:26:22;101233.84;;;21.45
69785;BMP280;14177;51.520;6.764;2023-08-12T09:28:49;101236.59;;;21.43
69785;BMP280;14177;51.520;6.764;2023-08-12T09:31:28;101245.69;;;21.39
69785;BMP280;14177;51.520;6.764;2023-08-12T09:34:04;101233.84;;;21.32
69785;BMP280;14177;51.520;6.764;2023-08-12T09:36:31;101233.22;;;21.29
69785;BMP280;14177;51.520;6.764;2023-08-12T09:38:58;101232.34;;;21.28
69785;BMP280;14177;51.520;6.764;2023-08-12T09:41:28;101234.97;;;21.28
69785;BMP280;14177;51.520;6.764;2023-08-12T09:43:56;101230.78;;;21.26
69785;BMP280;14177;51.520;6.764;2023-08-12T09:46:26;101225.56;;;21.24
69785;BMP280;14177;51.520;6.764;2023-08-12T09:48:53;101241.63;;;21.21
69785;BMP280;14177;51.520;6.764;2023-08-12T09:51:21;101246.16;;;21.19
69785;BMP280;14177;51.520;6.764;2023-08-12T09:53:51;101236.34;;;21.21
69785;BMP280;14177;51.520;6.764;2023-08-12T09:56:22;101239.72;;;21.23
69785;BMP280;14177;51.520;6.764;2023-08-12T09:58:51;101240.59;;;21.24
69785;BMP280;14177;51.520;6.764;2023-08-12T10:01:20;101250.28;;;21.23
69785;BMP280;14177;51.520;6.764;2023-08-12T10:03:51;101237.84;;;21.25
69785;BMP280;14177;51.520;6.764;2023-08-12T10:06:20;101237.53;;;21.30
69785;BMP280;14177;51.520;6.764;2023-08-12T10:08:48;101238.06;;;21.35
69785;BMP280;14177;51.520;6.764;2023-08-12T10:11:16;101230.47;;;21.43
69785;BMP280;14177;51.520;6.764;2023-08-12T10:13:43;101230.25;;;21.46
69785;BMP280;14177;51.520;6.764;2023-08-12T10:16:12;101230.88;;;21.49
69785;BMP280;14177;51.520;6.764;2023-08-12T10:18:40;101228.13;;;21.51
69785;BMP280;14177;51.520;6.764;2023-08-12T10:21:12;101230.56;;;21.54
69785;BMP280;14177;51.520;6.764;2023-08-12T10:23:42;101237.53;;;21.55
69785;BMP280;14177;51.520;6.764;2023-08-12T10:26:15;101231.09;;;21.59
69785;BMP280;14177;51.520;6.764;2023-08-12T10:28:43;101229.00;;;21.64
69785;BMP280;14177;51.520;6.764;2023-08-12T10:31:11;101230.41;;;21.69
69785;BMP280;14177;51.520;6.764;2023-08-12T10:33:39;101240.44;;;21.77
69785;BMP280;14177;51.520;6.764;2023-08-12T10:36:08;101227.63;;;21.83
69785;BMP280;14177;51.520;6.764;2023-08-12T10:38:36;101230.56;;;21.91
69785;BMP280;14177;51.520;6.764;2023-08-12T10:41:24;101236.16;;;21.99
69785;BMP280;14177;51.520;6.764;2023-08-12T10:43:52;101235.00;;;22.03
69785;BMP280;14177;51.520;6.764;2023-08-12T10:46:35;101227.69;;;22.07
69785;BMP280;14177;51.520;6.764;2023-08-12T10:49:05;101216.56;;;22.14
69785;BMP280;14177;51.520;6.764;2023-08-12T10:59:54;101221.84;;;22.14
69785;BMP280;14177;51.520;6.764;2023-08-12T11:02:27;101219.09;;;22.15
69785;BMP280;14177;51.520;6.764;2023-08-12T11:05:16;101215.38;;;22.18
69785;BMP280;14177;51.520;6.764;2023-08-12T11:07:48;101210.09;;;22.18
69785;BMP280;14177;51.520;6.764;2023-08-12T11:10:22;101210.09;;;22.18
69785;BMP280;14177;51.520;6.764;2023-08-12T11:15:32;101212.00;;;22.16
69785;BMP280;14177;51.520;6.764;2023-08-12T11:18:20;101205.25;;;22.12
69785;BMP280;14177;51.520;6.764;2023-08-12T11:20:48;101213.38;;;22.09
69785;BMP280;14177;51.520;6.764;2023-08-12T11:23:21;101219.84;;;22.05
69785;BMP280;14177;51.520;6.764;2023-08-12T11:25:48;101227.06;;;22.03
69785;BMP280;14177;51.520;6.764;2023-08-12T11:28:18;101221.97;;;22.00
69785;BMP280;14177;51.520;6.764;2023-08-12T11:30:48;101225.16;;;22.05
69785;BMP280;14177;51.520;6.764;2023-08-12T11:33:16;101220.06;;;22.02
69785;BMP280;14177;51.520;6.764;2023-08-12T11:35:45;101220.06;;;22.02
69785;BMP280;14177;51.520;6.764;2023-08-12T11:38:14;101224.41;;;22.03
69785;BMP280;14177;51.520;6.764;2023-08-12T11:40:42;101219.63;;;22.08
69785;BMP280;14177;51.520;6.764;2023-08-12T11:43:10;101219.63;;;22.08
69785;BMP280;14177;51.520;6.764;2023-08-12T11:45:42;101217.28;;;22.16
69785;BMP280;14177;51.520;6.764;2023-08-12T11:48:10;101215.81;;;22.12
69785;BMP280;14177;51.520;6.764;2023-08-12T11:50:38;101222.41;;;22.07
69785;BMP280;14177;51.520;6.764;2023-08-12T11:53:06;101228.22;;;21.99
69785;BMP280;14177;51.520;6.764;2023-08-12T11:55:33;101220.09;;;21.90
69785;BMP280;14177;51.520;6.764;2023-08-12T11:58:00;101213.88;;;21.91
69785;BMP280;14177;51.520;6.764;2023-08-12T12:00:28;101210.16;;;21.93
69785;BMP280;14177;51.520;6.764;2023-08-12T12:02:56;101216.91;;;21.97
69785;BMP280;14177;51.520;6.764;2023-08-12T12:05:28;101219.03;;;22.05
69785;BMP280;14177;51.520;6.764;2023-08-12T12:07:56;101219.28;;;22.25
69785;BMP280;14177;51.520;6.764;2023-08-12T12:10:30;101217.31;;;22.52
69785;BMP280;14177;51.520;6.764;2023-08-12T12:13:03;101212.75;;;22.77
69785;BMP280;14177;51.520;6.764;2023-08-12T12:15:38;101206.03;;;22.84
69785;BMP280;14177;51.520;6.764;2023-08-12T12:18:11;101199.19;;;22.93
69785;BMP280;14177;51.520;6.764;2023-08-12T12:20:58;101205.06;;;23.09
69785;BMP280;14177;51.520;6.764;2023-08-12T12:23:29;101206.88;;;23.19
69785;BMP280;14177;51.520;6.764;2023-08-12T12:26:03;101200.19;;;23.37
69785;BMP280;14177;51.520;6.764;2023-08-12T12:28:30;101205.84;;;23.54
69785;BMP280;14177;51.520;6.764;2023-08-12T12:30:58;101214.06;;;23.73
69785;BMP280;14177;51.520;6.764;2023-08-12T12:33:25;101209.63;;;23.96
69785;BMP280;14177;51.520;6.764;2023-08-12T12:35:52;101216.72;;;24.06
69785;BMP280;14177;51.520;6.764;2023-08-12T12:38:26;101204.81;;;23.90
69785;BMP280;14177;51.520;6.764;2023-08-12T12:40:53;101207.31;;;23.69
69785;BMP280;14177;51.520;6.764;2023-08-12T12:43:20;101206.06;;;23.40
69785;BMP280;14177;51.520;6.764;2023-08-12T12:45:47;101201.59;;;23.19
69785;BMP280;14177;51.520;6.764;2023-08-12T12:48:14;101224.63;;;23.06
69785;BMP280;14177;51.520;6.764;2023-08-12T12:50:41;101224.22;;;22.89
69785;BMP280;14177;51.520;6.764;2023-08-12T12:53:08;101219.38;;;22.83
69785;BMP280;14177;51.520;6.764;2023-08-12T12:55:35;101234.31;;;22.84
69785;BMP280;14177;51.520;6.764;2023-08-12T12:58:03;101232.38;;;22.86
69785;BMP280;14177;51.520;6.764;2023-08-12T13:00:30;101234.09;;;22.87
69785;BMP280;14177;51.520;6.764;2023-08-12T13:02:57;101243.94;;;22.85
69785;BMP280;14177;51.520;6.764;2023-08-12T13:05:24;101235.16;;;22.84
69785;BMP280;14177;51.520;6.764;2023-08-12T13:07:51;101239.50;;;22.85
69785;BMP280;14177;51.520;6.764;2023-08-12T13:10:18;101247.22;;;22.88
69785;BMP280;14177;51.520;6.764;2023-08-12T13:12:45;101237.97;;;22.94
69785;BMP280;14177;51.520;6.764;2023-08-12T13:15:12;101238.09;;;23.03
69785;BMP280;14177;51.520;6.764;2023-08-12T13:17:43;101240.66;;;23.05
69785;BMP280;14177;51.520;6.764;2023-08-12T13:20:11;101248.84;;;23.02
69785;BMP280;14177;51.520;6.764;2023-08-12T13:22:38;101249.28;;;22.96
69785;BMP280;14177;51.520;6.764;2023-08-12T13:25:05;101278.16;;;22.88
69785;BMP280;14177;51.520;6.764;2023-08-12T13:27:33;101266.03;;;22.73
69785;BMP280;14177;51.520;6.764;2023-08-12T13:30:00;101270.94;;;22.66
69785;BMP280;14177;51.520;6.764;2023-08-12T13:32:27;101271.63;;;22.57
69785;BMP280;14177;51.520;6.764;2023-08-12T13:34:56;101274.38;;;22.56
69785;BMP280;14177;51.520;6.764;2023-08-12T13:37:33;101276.06;;;22.57
69785;BMP280;14177;51.520;6.764;2023-08-12T13:40:02;101272.00;;;22.64
69785;BMP280;14177;51.520;6.764;2023-08-12T13:42:30;101256.91;;;22.77
69785;BMP280;14177;51.520;6.764;2023-08-12T13:44:58;101259.28;;;23.16
69785;BMP280;14177;51.520;6.764;2023-08-12T13:47:28;101253.31;;;23.46
69785;BMP280;14177;51.520;6.764;2023-08-12T13:49:57;101258.44;;;23.71
69785;BMP280;14177;51.520;6.764;2023-08-12T13:52:26;101254.88;;;23.94
69785;BMP280;14177;51.520;6.764;2023-08-12T13:54:53;101264.28;;;23.98
69785;BMP280;14177;51.520;6.764;2023-08-12T13:57:21;101275.63;;;24.00
69785;BMP280;14177;51.520;6.764;2023-08-12T13:59:48;101273.94;;;23.99
69785;BMP280;14177;51.520;6.764;2023-08-12T14:02:15;101278.47;;;24.41
69785;BMP280;14177;51.520;6.764;2023-08-12T14:04:42;101279.59;;;24.81
69785;BMP280;14177;51.520;6.764;2023-08-12T14:07:09;101278.03;;;25.21
69785;BMP280;14177;51.520;6.764;2023-08-12T14:09:36;101282.78;;;25.38
69785;BMP280;14177;51.520;6.764;2023-08-12T14:12:04;101281.81;;;25.59
69785;BMP280;14177;51.520;6.764;2023-08-12T14:14:31;101277.69;;;25.96
69785;BMP280;14177;51.520;6.764;2023-08-12T14:16:58;101284.50;;;26.19
69785;BMP280;14177;51.520;6.764;2023-08-12T14:19:25;101285.66;;;26.26
69785;BMP280;14177;51.520;6.764;2023-08-12T14:21:52;101283.69;;;26.18